Terminal Aerodrome Forecast
Issued by NWS Sterling, VA

Home | Current Version | Previous Version | Text Only | Print | Product List | Glossary On
Versions: 1 2 3 4 5 6 7 8 9 10 11 12 13 14 15 16 17 18 19 20 21 22 23
000
FTUS41 KLWX 281120
TAFIAD
TAF
KIAD 281120Z 2812/0118 18008KT P6SM SCT045 BKN250
     FM282100 18010KT P6SM -SHRA SCT040 OVC100
     FM010300 19009KT 3SM -SHRA BKN010 OVC025
     FM010600 21011KT 3SM BR BKN010 OVC025
     FM011200 20012G20KT P6SM BKN010 OVC025
     FM011500 21014G23KT P6SM SCT025 OVC060=

USA.gov is the U.S. government's official web portal to all federal, state and local government web resources and services.